sensor_id;sensor_type;location;lat;lon;timestamp;P1;durP1;ratioP1;P2;durP2;ratioP2
2868;SDS011;1442;47.448;8.582;2023-03-17T00:02:17;6.43;;;3.15;;
2868;SDS011;1442;47.448;8.582;2023-03-17T00:04:46;6.85;;;3.75;;
2868;SDS011;1442;47.448;8.582;2023-03-17T00:07:14;4.85;;;3.08;;
2868;SDS011;1442;47.448;8.582;2023-03-17T00:09:42;10.38;;;3.20;;
2868;SDS011;1442;47.448;8.582;2023-03-17T00:12:10;5.93;;;3.08;;
2868;SDS011;1442;47.448;8.582;2023-03-17T00:14:38;6.65;;;3.88;;
2868;SDS011;1442;47.448;8.582;2023-03-17T00:17:05;5.70;;;2.88;;
2868;SDS011;1442;47.448;8.582;2023-03-17T00:19:35;7.13;;;3.58;;
2868;SDS011;1442;47.448;8.582;2023-03-17T00:22:05;5.43;;;3.17;;
2868;SDS011;1442;47.448;8.582;2023-03-17T00:24:32;6.63;;;3.40;;
2868;SDS011;1442;47.448;8.582;2023-03-17T00:26:59;6.80;;;3.67;;
2868;SDS011;1442;47.448;8.582;2023-03-17T00:29:26;6.32;;;3.45;;
2868;SDS011;1442;47.448;8.582;2023-03-17T00:31:54;7.03;;;3.53;;
2868;SDS011;1442;47.448;8.582;2023-03-17T00:34:23;6.72;;;3.50;;
2868;SDS011;1442;47.448;8.582;2023-03-17T00:36:51;5.30;;;3.53;;
2868;SDS011;1442;47.448;8.582;2023-03-17T00:39:19;8.50;;;3.20;;
2868;SDS011;1442;47.448;8.582;2023-03-17T00:41:48;7.10;;;3.10;;
2868;SDS011;1442;47.448;8.582;2023-03-17T00:44:15;6.15;;;2.83;;
2868;SDS011;1442;47.448;8.582;2023-03-17T00:46:42;7.10;;;3.30;;
2868;SDS011;1442;47.448;8.582;2023-03-17T00:49:11;6.78;;;3.60;;
2868;SDS011;1442;47.448;8.582;2023-03-17T00:51:40;6.13;;;3.30;;
2868;SDS011;1442;47.448;8.582;2023-03-17T00:54:08;5.03;;;3.33;;
2868;SDS011;1442;47.448;8.582;2023-03-17T00:56:37;5.68;;;2.85;;
2868;SDS011;1442;47.448;8.582;2023-03-17T00:59:08;8.32;;;3.72;;
2868;SDS011;1442;47.448;8.582;2023-03-17T01:01:39;5.43;;;3.28;;
2868;SDS011;1442;47.448;8.582;2023-03-17T01:04:07;8.65;;;3.65;;
2868;SDS011;1442;47.448;8.582;2023-03-17T01:06:35;6.10;;;3.17;;
2868;SDS011;1442;47.448;8.582;2023-03-17T01:09:02;8.85;;;3.78;;
2868;SDS011;1442;47.448;8.582;2023-03-17T01:11:29;7.00;;;3.53;;
2868;SDS011;1442;47.448;8.582;2023-03-17T01:13:58;7.13;;;3.28;;
2868;SDS011;1442;47.448;8.582;2023-03-17T01:16:25;5.97;;;3.28;;
2868;SDS011;1442;47.448;8.582;2023-03-17T01:18:52;11.48;;;3.78;;
2868;SDS011;1442;47.448;8.582;2023-03-17T01:21:20;6.45;;;3.17;;
2868;SDS011;1442;47.448;8.582;2023-03-17T01:23:47;15.30;;;3.72;;
2868;SDS011;1442;47.448;8.582;2023-03-17T01:26:14;10.70;;;3.45;;
2868;SDS011;1442;47.448;8.582;2023-03-17T01:28:42;7.28;;;3.13;;
2868;SDS011;1442;47.448;8.582;2023-03-17T01:31:10;4.43;;;3.25;;
2868;SDS011;1442;47.448;8.582;2023-03-17T01:33:37;6.25;;;3.22;;
2868;SDS011;1442;47.448;8.582;2023-03-17T01:36:05;7.60;;;3.05;;
2868;SDS011;1442;47.448;8.582;2023-03-17T01:38:33;8.88;;;3.45;;
2868;SDS011;1442;47.448;8.582;2023-03-17T01:41:00;7.82;;;3.20;;
2868;SDS011;1442;47.448;8.582;2023-03-17T01:43:28;6.65;;;2.97;;
2868;SDS011;1442;47.448;8.582;2023-03-17T01:46:15;6.43;;;3.47;;
2868;SDS011;1442;47.448;8.582;2023-03-17T01:48:42;9.27;;;3.42;;
2868;SDS011;1442;47.448;8.582;2023-03-17T01:51:12;6.55;;;3.95;;
2868;SDS011;1442;47.448;8.582;2023-03-17T01:53:41;12.10;;;4.13;;
2868;SDS011;1442;47.448;8.582;2023-03-17T01:58:39;6.35;;;3.65;;
2868;SDS011;1442;47.448;8.582;2023-03-17T02:01:07;7.85;;;3.97;;
2868;SDS011;1442;47.448;8.582;2023-03-17T02:03:36;5.00;;;3.45;;
2868;SDS011;1442;47.448;8.582;2023-03-17T02:06:03;6.57;;;3.85;;
2868;SDS011;1442;47.448;8.582;2023-03-17T02:08:32;7.93;;;3.75;;
2868;SDS011;1442;47.448;8.582;2023-03-17T02:10:59;8.70;;;4.28;;
2868;SDS011;1442;47.448;8.582;2023-03-17T02:13:27;10.77;;;3.38;;
2868;SDS011;1442;47.448;8.582;2023-03-17T02:15:54;8.25;;;3.72;;
2868;SDS011;1442;47.448;8.582;2023-03-17T02:18:21;6.35;;;3.20;;
2868;SDS011;1442;47.448;8.582;2023-03-17T02:23:42;8.10;;;3.33;;
2868;SDS011;1442;47.448;8.582;2023-03-17T02:26:09;12.10;;;4.07;;
2868;SDS011;1442;47.448;8.582;2023-03-17T02:28:37;5.53;;;3.35;;
2868;SDS011;1442;47.448;8.582;2023-03-17T02:31:05;5.85;;;3.65;;
2868;SDS011;1442;47.448;8.582;2023-03-17T02:33:33;5.88;;;3.35;;
2868;SDS011;1442;47.448;8.582;2023-03-17T02:36:00;5.13;;;3.28;;
2868;SDS011;1442;47.448;8.582;2023-03-17T02:38:27;4.93;;;3.55;;
2868;SDS011;1442;47.448;8.582;2023-03-17T02:40:56;7.07;;;3.53;;
2868;SDS011;1442;47.448;8.582;2023-03-17T02:43:23;14.18;;;3.90;;
2868;SDS011;1442;47.448;8.582;2023-03-17T02:45:50;7.30;;;3.67;;
2868;SDS011;1442;47.448;8.582;2023-03-17T02:48:17;8.52;;;3.60;;
2868;SDS011;1442;47.448;8.582;2023-03-17T02:50:46;5.53;;;3.85;;
2868;SDS011;1442;47.448;8.582;2023-03-17T02:53:14;8.20;;;4.15;;
2868;SDS011;1442;47.448;8.582;2023-03-17T02:55:41;5.40;;;3.30;;
2868;SDS011;1442;47.448;8.582;2023-03-17T02:58:10;5.22;;;3.47;;
2868;SDS011;1442;47.448;8.582;2023-03-17T03:00:37;4.85;;;3.40;;
2868;SDS011;1442;47.448;8.582;2023-03-17T03:03:04;9.27;;;4.25;;
2868;SDS011;1442;47.448;8.582;2023-03-17T03:05:31;8.15;;;3.75;;
2868;SDS011;1442;47.448;8.582;2023-03-17T03:07:59;6.65;;;3.83;;
2868;SDS011;1442;47.448;8.582;2023-03-17T03:10:27;7.93;;;3.63;;
2868;SDS011;1442;47.448;8.582;2023-03-17T03:12:54;6.25;;;4.10;;
2868;SDS011;1442;47.448;8.582;2023-03-17T03:15:23;7.80;;;3.70;;
2868;SDS011;1442;47.448;8.582;2023-03-17T03:17:50;9.32;;;3.83;;
2868;SDS011;1442;47.448;8.582;2023-03-17T03:20:17;7.45;;;4.10;;
2868;SDS011;1442;47.448;8.582;2023-03-17T03:22:45;5.95;;;3.67;;
2868;SDS011;1442;47.448;8.582;2023-03-17T03:25:12;6.93;;;4.38;;
2868;SDS011;1442;47.448;8.582;2023-03-17T03:27:39;11.57;;;3.80;;
2868;SDS011;1442;47.448;8.582;2023-03-17T03:30:07;6.65;;;3.70;;
2868;SDS011;1442;47.448;8.582;2023-03-17T03:32:35;6.68;;;4.40;;
2868;SDS011;1442;47.448;8.582;2023-03-17T03:35:03;11.00;;;3.90;;
2868;SDS011;1442;47.448;8.582;2023-03-17T03:37:30;6.75;;;4.25;;
2868;SDS011;1442;47.448;8.582;2023-03-17T03:39:57;5.60;;;3.63;;
2868;SDS011;1442;47.448;8.582;2023-03-17T03:42:25;9.57;;;4.32;;
2868;SDS011;1442;47.448;8.582;2023-03-17T03:44:52;7.28;;;4.10;;
2868;SDS011;1442;47.448;8.582;2023-03-17T03:47:19;7.53;;;4.07;;
2868;SDS011;1442;47.448;8.582;2023-03-17T03:49:48;9.15;;;4.07;;
2868;SDS011;1442;47.448;8.582;2023-03-17T03:52:15;7.47;;;3.70;;
2868;SDS011;1442;47.448;8.582;2023-03-17T03:54:42;8.60;;;4.50;;
2868;SDS011;1442;47.448;8.582;2023-03-17T03:57:10;8.35;;;4.32;;
2868;SDS011;1442;47.448;8.582;2023-03-17T03:59:37;7.63;;;4.20;;
2868;SDS011;1442;47.448;8.582;2023-03-17T04:02:05;6.47;;;4.25;;
2868;SDS011;1442;47.448;8.582;2023-03-17T04:04:32;6.57;;;3.72;;
2868;SDS011;1442;47.448;8.582;2023-03-17T04:07:01;8.52;;;3.88;;
2868;SDS011;1442;47.448;8.582;2023-03-17T04:09:28;8.10;;;4.32;;
2868;SDS011;1442;47.448;8.582;2023-03-17T04:11:55;7.40;;;4.18;;
2868;SDS011;1442;47.448;8.582;2023-03-17T04:14:23;7.15;;;3.95;;
2868;SDS011;1442;47.448;8.582;2023-03-17T04:16:50;6.85;;;4.25;;
2868;SDS011;1442;47.448;8.582;2023-03-17T04:19:17;8.23;;;4.15;;
2868;SDS011;1442;47.448;8.582;2023-03-17T04:21:45;8.75;;;5.10;;
2868;SDS011;1442;47.448;8.582;2023-03-17T04:24:14;9.65;;;4.60;;
2868;SDS011;1442;47.448;8.582;2023-03-17T04:26:41;11.05;;;4.40;;
2868;SDS011;1442;47.448;8.582;2023-03-17T04:29:08;6.88;;;4.55;;
2868;SDS011;1442;47.448;8.582;2023-03-17T04:31:39;6.78;;;4.40;;
2868;SDS011;1442;47.448;8.582;2023-03-17T04:34:08;6.45;;;3.95;;
2868;SDS011;1442;47.448;8.582;2023-03-17T04:36:37;6.05;;;4.15;;
2868;SDS011;1442;47.448;8.582;2023-03-17T04:39:04;9.50;;;4.53;;
2868;SDS011;1442;47.448;8.582;2023-03-17T04:41:33;8.73;;;4.00;;
2868;SDS011;1442;47.448;8.582;2023-03-17T04:44:01;9.32;;;4.57;;
2868;SDS011;1442;47.448;8.582;2023-03-17T04:46:28;7.68;;;4.38;;
2868;SDS011;1442;47.448;8.582;2023-03-17T04:48:55;6.88;;;4.18;;
2868;SDS011;1442;47.448;8.582;2023-03-17T04:51:22;6.10;;;3.75;;
2868;SDS011;1442;47.448;8.582;2023-03-17T04:53:49;6.05;;;3.83;;
2868;SDS011;1442;47.448;8.582;2023-03-17T04:56:17;6.93;;;4.43;;
2868;SDS011;1442;47.448;8.582;2023-03-17T04:58:46;7.45;;;4.13;;
2868;SDS011;1442;47.448;8.582;2023-03-17T05:01:13;7.05;;;4.13;;
2868;SDS011;1442;47.448;8.582;2023-03-17T05:03:40;8.57;;;4.38;;
2868;SDS011;1442;47.448;8.582;2023-03-17T05:06:07;6.03;;;4.30;;
2868;SDS011;1442;47.448;8.582;2023-03-17T05:08:35;6.53;;;4.30;;
2868;SDS011;1442;47.448;8.582;2023-03-17T05:11:02;9.75;;;4.18;;
2868;SDS011;1442;47.448;8.582;2023-03-17T05:13:29;6.93;;;3.58;;
2868;SDS011;1442;47.448;8.582;2023-03-17T05:15:58;5.82;;;3.67;;
2868;SDS011;1442;47.448;8.582;2023-03-17T05:18:26;8.20;;;4.25;;
2868;SDS011;1442;47.448;8.582;2023-03-17T05:20:53;6.30;;;3.85;;
2868;SDS011;1442;47.448;8.582;2023-03-17T05:23:21;7.20;;;4.22;;
2868;SDS011;1442;47.448;8.582;2023-03-17T05:25:48;5.57;;;3.88;;
2868;SDS011;1442;47.448;8.582;2023-03-17T05:28:16;8.88;;;4.00;;
2868;SDS011;1442;47.448;8.582;2023-03-17T05:30:44;8.98;;;4.35;;
2868;SDS011;1442;47.448;8.582;2023-03-17T05:33:13;8.38;;;4.55;;
2868;SDS011;1442;47.448;8.582;2023-03-17T05:35:41;8.20;;;4.40;;
2868;SDS011;1442;47.448;8.582;2023-03-17T05:38:09;12.05;;;4.63;;
2868;SDS011;1442;47.448;8.582;2023-03-17T05:40:37;6.47;;;4.20;;
2868;SDS011;1442;47.448;8.582;2023-03-17T05:43:04;5.78;;;3.88;;
2868;SDS011;1442;47.448;8.582;2023-03-17T05:45:31;6.85;;;4.57;;
2868;SDS011;1442;47.448;8.582;2023-03-17T05:47:59;8.35;;;4.35;;
2868;SDS011;1442;47.448;8.582;2023-03-17T05:50:27;5.45;;;4.07;;
2868;SDS011;1442;47.448;8.582;2023-03-17T05:52:54;7.40;;;4.47;;
2868;SDS011;1442;47.448;8.582;2023-03-17T05:55:22;9.23;;;4.28;;
2868;SDS011;1442;47.448;8.582;2023-03-17T05:57:49;11.45;;;4.95;;
2868;SDS011;1442;47.448;8.582;2023-03-17T06:00:16;7.45;;;4.60;;
2868;SDS011;1442;47.448;8.582;2023-03-17T06:02:45;11.70;;;4.57;;
2868;SDS011;1442;47.448;8.582;2023-03-17T06:05:12;8.40;;;4.43;;
2868;SDS011;1442;47.448;8.582;2023-03-17T06:07:41;8.60;;;4.50;;
2868;SDS011;1442;47.448;8.582;2023-03-17T06:10:08;15.85;;;4.95;;
2868;SDS011;1442;47.448;8.582;2023-03-17T06:12:36;15.85;;;4.85;;
2868;SDS011;1442;47.448;8.582;2023-03-17T06:15:03;15.60;;;4.55;;
2868;SDS011;1442;47.448;8.582;2023-03-17T06:17:31;6.80;;;4.78;;
2868;SDS011;1442;47.448;8.582;2023-03-17T06:19:58;8.88;;;4.07;;
2868;SDS011;1442;47.448;8.582;2023-03-17T06:22:25;13.75;;;6.15;;
2868;SDS011;1442;47.448;8.582;2023-03-17T06:24:54;9.93;;;5.63;;
2868;SDS011;1442;47.448;8.582;2023-03-17T06:27:21;12.77;;;6.32;;
2868;SDS011;1442;47.448;8.582;2023-03-17T06:29:48;13.52;;;6.60;;
2868;SDS011;1442;47.448;8.582;2023-03-17T06:32:15;17.25;;;6.32;;
2868;SDS011;1442;47.448;8.582;2023-03-17T06:34:42;13.40;;;6.60;;
2868;SDS011;1442;47.448;8.582;2023-03-17T06:37:10;15.45;;;6.20;;
2868;SDS011;1442;47.448;8.582;2023-03-17T06:39:37;13.95;;;6.20;;
2868;SDS011;1442;47.448;8.582;2023-03-17T06:42:07;16.40;;;6.28;;
2868;SDS011;1442;47.448;8.582;2023-03-17T06:44:34;9.30;;;5.00;;
2868;SDS011;1442;47.448;8.582;2023-03-17T06:47:01;6.30;;;4.80;;
2868;SDS011;1442;47.448;8.582;2023-03-17T06:49:29;20.98;;;4.80;;
2868;SDS011;1442;47.448;8.582;2023-03-17T06:51:56;12.23;;;5.53;;
2868;SDS011;1442;47.448;8.582;2023-03-17T06:54:24;12.90;;;5.80;;
2868;SDS011;1442;47.448;8.582;2023-03-17T06:56:51;10.15;;;5.75;;
2868;SDS011;1442;47.448;8.582;2023-03-17T06:59:20;10.73;;;5.72;;
2868;SDS011;1442;47.448;8.582;2023-03-17T07:01:48;9.68;;;6.05;;
2868;SDS011;1442;47.448;8.582;2023-03-17T07:04:16;8.50;;;5.38;;
2868;SDS011;1442;47.448;8.582;2023-03-17T07:06:43;9.95;;;5.93;;
2868;SDS011;1442;47.448;8.582;2023-03-17T07:09:11;11.50;;;5.90;;
2868;SDS011;1442;47.448;8.582;2023-03-17T07:11:39;8.95;;;5.57;;
2868;SDS011;1442;47.448;8.582;2023-03-17T07:14:06;9.45;;;5.70;;
2868;SDS011;1442;47.448;8.582;2023-03-17T07:16:35;9.00;;;5.75;;
2868;SDS011;1442;47.448;8.582;2023-03-17T07:19:02;10.65;;;5.32;;
2868;SDS011;1442;47.448;8.582;2023-03-17T07:21:29;9.00;;;5.68;;
2868;SDS011;1442;47.448;8.582;2023-03-17T07:23:56;9.10;;;5.55;;
2868;SDS011;1442;47.448;8.582;2023-03-17T07:26:24;10.27;;;5.75;;
2868;SDS011;1442;47.448;8.582;2023-03-17T07:28:51;10.73;;;6.95;;
2868;SDS011;1442;47.448;8.582;2023-03-17T07:31:18;9.45;;;5.32;;
2868;SDS011;1442;47.448;8.582;2023-03-17T07:33:46;7.25;;;5.68;;
2868;SDS011;1442;47.448;8.582;2023-03-17T07:36:14;15.57;;;6.55;;
2868;SDS011;1442;47.448;8.582;2023-03-17T07:38:41;10.60;;;5.78;;
2868;SDS011;1442;47.448;8.582;2023-03-17T07:41:09;9.20;;;5.80;;
2868;SDS011;1442;47.448;8.582;2023-03-17T07:43:36;8.30;;;5.18;;
2868;SDS011;1442;47.448;8.582;2023-03-17T07:46:03;10.23;;;5.18;;
